This is the latest recevied weather packets stored in our database for station/object K1ADK-1. If no packets are shown the sender has not sent any weather packets the latest 10 day(s).
| Time | Temp. | Humidity | Pressure | Rain* | Wind** | Luminosity | Snow |
|---|---|---|---|---|---|---|---|
| 1777143315 | 6.11° C | 88% | 1017.5 hPa | 1.27 mm | - | 122 W/m² | - |
| 1777142717 | 6.11° C | 88% | 1017.6 hPa | 1.52 mm | - | 123 W/m² | - |
| 1777139117 | 6.11° C | 88% | 1017.3 hPa | 2.29 mm | - | 123 W/m² | - |
| 1777133117 | 6.67° C | 80% | 1018.2 hPa | 0.25 mm | - | 79 W/m² | - |
| 1777131917 | 7.22° C | 77% | 1018.2 hPa | 0 mm | - | 71 W/m² | - |
| 1777128917 | 7.78° C | 66% | 1017.9 hPa | 0 mm | - | 92 W/m² | - |
| 1777127117 | 8.33° C | 63% | 1017.7 hPa | 0 mm | - | 129 W/m² | - |
| 1777119937 | 8.33° C | 65% | 1017.3 hPa | 0 mm | - | 178 W/m² | - |
| 1777113337 | 6.11° C | 82% | 1016.3 hPa | 0 mm | - | 47 W/m² | - |
| 1777104916 | 6.11° C | 81% | 1015.5 hPa | 0 mm | - | 0 W/m² | - |
| 1777104316 | 6.11° C | 81% | 1015.4 hPa | 0 mm | - | 0 W/m² | - |
| 1777103116 | 6.11° C | 80% | 1015 hPa | 0 mm | - | 0 W/m² | - |
| 1777093516 | 7.78° C | 80% | 1014.8 hPa | 0 mm | - | 0 W/m² | - |
| 1777092356 | 7.78° C | 81% | 1014.8 hPa | 0 mm | - | 0 W/m² | - |
| 1777089316 | 7.78° C | 83% | 1014 hPa | 0 mm | - | 0 W/m² | - |
| 1777088136 | 7.78° C | 83% | 1014.1 hPa | 0 mm | - | 0 W/m² | - |
| 1777087516 | 7.78° C | 83% | 1013.9 hPa | 0 mm | - | 0 W/m² | - |
| 1777083316 | 8.33° C | 81% | 1013.5 hPa | 0 mm | - | 0 W/m² | - |
| 1777080336 | 8.33° C | 80% | 1012.8 hPa | 0 mm | - | 0 W/m² | - |
| 1777078516 | 8.33° C | 78% | 1012.3 hPa | 0 mm | - | 0 W/m² | - |
| 1777075516 | 9.44° C | 73% | 1011.4 hPa | 0 mm | - | 0 W/m² | - |
* Rain latest hour (hover to see other rain measurements)
** Current wind speed in m/s (hover to see current wind gust speed)